Time;durP1;ratioP1;P1;durP2;ratioP2;P2;SDS_P1;SDS_P2;PMS_P1;PMS_P2;Temp;Humidity;BMP_temperature;BMP_pressure;BME280_temperature;BME280_humidity;BME280_pressure;Samples;Min_cycle;Max_cycle;Signal;HPM_P1;HPM_P2
2023/01/24 01:40:44;;;;;;;;;;;;;;;;;;;;;
2023/01/24 02:30:13;;;;;;;;;;;;;;;;;;;;;
2023/01/24 02:34:09;;;;;;;;;;;;;;;;;;;;;
2023/01/24 03:44:18;;;;;;;;;;;;;;;;;;;;;
2023/01/24 04:05:41;;;;;;;;;;;;;;;;;;;;;
2023/01/24 04:16:12;;;;;;;;;;;;;;;;;;;;;
2023/01/24 05:30:59;;;;;;;;;;;;;;;;;;;;;
2023/01/24 06:14:04;;;;;;;;;;;;;;;;;;;;;
2023/01/24 06:16:56;;;;;;;;;;;;;;;;;;;;;
2023/01/24 07:08:22;;;;;;;;;;;;;;;;;;;;;
2023/01/24 07:29:39;;;;;;;;;;;;;;;;;;;;;
2023/01/24 08:13:21;;;;;;;;;;;;;;;4.11;66.25;103040.22;5303885;22;29925025;-65
2023/01/24 08:37:34;;;;;;;;;;;;;;;;;;;;;
2023/01/24 08:57:48;;;;;;;;;44.75;36.75;;;;;4.55;65.82;103127.06;5998145;23;45505;-65
2023/01/24 09:01:14;;;;;;;;;;;;;;;;;;;;;
2023/01/24 09:03:38;;;;;;;;;45.25;36.75;;;;;4.61;65.71;103130.78;6207452;22;45877;-66
2023/01/24 09:06:17;;;;;;;;;;;;;;;;;;;;;
2023/01/24 09:12:47;;;;;;;;;;;;;;;;;;;;;
2023/01/24 09:19:29;;;;;;;;;;;;;;;;;;;;;
2023/01/24 09:22:44;;;;;;;;;;;;;;;;;;;;;
2023/01/24 09:46:09;;;;;;;;;;;;;;;;;;;;;
2023/01/24 09:59:31;;;;;;;;;52.25;43.00;;;;;4.79;66.04;103177.19;6253748;22;45354;-66
2023/01/24 10:08:36;;;;;;;;;42.25;31.00;;;;;4.93;65.28;103219.97;6278618;22;45520;-80
2023/01/24 10:11:26;;;;;;;;;50.50;43.00;;;;;4.93;65.14;103215.56;6307008;22;45497;-79
2023/01/24 10:14:18;;;;;;;;;49.50;41.75;;;;;4.93;66.13;103206.72;6307923;22;45214;-79
2023/01/24 10:16:49;;;;;;;;;43.75;40.25;;;;;4.96;66.31;103205.06;6281242;22;47314;-79
2023/01/24 10:19:32;;;;;;;;;42.25;34.25;;;;;4.93;66.55;103191.72;6279938;22;45182;-80
2023/01/24 10:22:04;;;;;;;;;47.00;38.50;;;;;4.99;65.55;103198.94;6307628;22;45398;-79
2023/01/24 10:24:35;;;;;;;;;43.75;38.00;;;;;4.93;66.35;103191.72;6272977;22;45548;-79
2023/01/24 10:27:01;;;;;;;;;50.75;42.00;;;;;4.98;66.54;103186.59;6304241;22;47154;-80
2023/01/24 10:29:29;;;;;;;;;45.75;40.50;;;;;5.10;66.60;103194.88;6277693;22;45257;-80
2023/01/24 10:32:23;;;;;;;;;44.75;38.00;;;;;5.10;66.08;103181.66;6278224;22;45334;-79
2023/01/24 10:34:56;;;;;;;;;42.50;40.00;;;;;5.19;65.93;103192.53;6300153;22;45488;-79
2023/01/24 10:37:25;;;;;;;;;45.25;40.25;;;;;5.15;66.40;103173.84;6306559;22;46416;-79
2023/01/24 10:39:51;;;;;;;;;43.00;38.50;;;;;5.21;66.23;103179.28;6305445;22;45684;-79
2023/01/24 10:42:24;;;;;;;;;52.25;37.00;;;;;5.29;65.59;103193.66;6306613;22;45276;-79
2023/01/24 10:44:51;;;;;;;;;46.75;37.00;;;;;5.20;66.26;103169.56;6279808;22;45894;-79
2023/01/24 10:47:21;;;;;;;;;34.50;30.50;;;;;5.32;66.39;103187.56;6279823;22;48263;-79
2023/01/24 10:50:17;;;;;;;;;40.25;37.50;;;;;5.35;66.53;103188.53;6307469;22;45304;-79
2023/01/24 10:52:43;;;;;;;;;47.25;40.00;;;;;5.39;66.35;103184.22;6304791;22;45357;-79
2023/01/24 10:55:34;;;;;;;;;38.25;35.75;;;;;5.39;65.60;103168.34;6307177;22;45553;-79
2023/01/24 10:58:01;;;;;;;;;55.75;43.00;;;;;5.29;65.32;103142.44;6306672;22;46035;-79
2023/01/24 11:00:33;;;;;;;;;43.50;36.50;;;;;5.44;65.41;103155.22;6306456;22;45344;-79
2023/01/24 11:03:01;;;;;;;;;32.00;28.50;;;;;5.51;64.89;103162.47;6305355;22;45590;-80
2023/01/24 11:05:38;;;;;;;;;44.25;40.00;;;;;5.47;65.81;103160.63;6307869;22;45207;-79
2023/01/24 11:08:04;;;;;;;;;45.25;40.00;;;;;5.54;66.16;103174.06;6310980;22;46498;-82
2023/01/24 11:10:37;;;;;;;;;41.75;37.00;;;;;5.48;64.88;103168.59;6309718;22;45432;-82
2023/01/24 11:13:18;;;;;;;;;45.00;38.00;;;;;5.32;65.80;103156.66;6306089;22;45458;-81
2023/01/24 11:15:50;;;;;;;;;45.00;39.00;;;;;5.32;65.76;103161.09;6277846;22;45765;-81
2023/01/24 11:18:27;;;;;;;;;46.75;38.50;;;;;5.16;65.82;103122.66;6304871;22;47730;-81
2023/01/24 11:21:16;;;;;;;;;37.00;33.25;;;;;5.43;65.91;103162.28;6304594;22;45600;-81
2023/01/24 11:23:42;;;;;;;;;51.25;41.75;;;;;5.44;65.51;103157.88;6279285;22;45607;-81
2023/01/24 11:26:37;;;;;;;;;46.50;38.00;;;;;5.41;65.88;103156.03;6305992;22;45294;-81
2023/01/24 11:29:16;;;;;;;;;53.25;41.75;;;;;5.39;65.95;103155.09;6279234;22;46845;-82
2023/01/24 11:31:51;;;;;;;;;40.25;30.50;;;;;5.37;65.33;103146.22;6306271;22;45441;-81
2023/01/24 11:34:41;;;;;;;;;57.00;42.75;;;;;5.41;65.65;103144.53;6278096;22;45259;-81
2023/01/24 11:37:35;;;;;;;;;50.50;39.25;;;;;5.43;66.04;103148.13;6279266;22;45450;-81
2023/01/24 11:40:24;;;;;;;;;38.50;31.25;;;;;5.41;65.76;103136.59;6278265;22;47789;-81
2023/01/24 11:43:08;;;;;;;;;46.00;35.50;;;;;5.47;65.82;103136.78;6278682;22;45242;-81
2023/01/24 11:45:55;;;;;;;;;32.25;28.25;;;;;5.50;65.30;103144.81;6307525;22;45578;-81
2023/01/24 11:48:25;;;;;;;;;41.25;32.00;;;;;5.32;66.06;103114.28;6279067;22;45238;-81
2023/01/24 11:51:08;;;;;;;;;43.50;37.25;;;;;5.57;65.49;103145.00;6306748;22;45306;-81
2023/01/24 11:54:01;;;;;;;;;46.00;38.25;;;;;5.63;65.96;103141.63;6307654;22;45340;-81
2023/01/24 11:56:54;;;;;;;;;41.25;38.00;;;;;5.68;65.43;103139.06;6307365;22;45367;-81
2023/01/24 11:59:38;;;;;;;;;48.25;41.00;;;;;5.39;65.59;103095.06;6279471;22;45217;-81
2023/01/24 12:02:18;;;;;;;;;43.75;34.00;;;;;5.72;65.34;103125.06;6306212;22;46160;-81
2023/01/24 12:04:43;;;;;;;;;48.75;34.75;;;;;5.71;65.16;103125.91;6279565;22;45225;-78
2023/01/24 12:07:24;;;;;;;;;38.25;33.50;;;;;5.73;64.82;103124.19;6273649;22;45349;-81
2023/01/24 12:10:06;;;;;;;;;40.75;37.50;;;;;5.45;65.14;103089.03;6275603;22;45554;-80
2023/01/24 12:12:43;;;;;;;;;39.50;35.00;;;;;5.67;65.97;103124.06;6272448;22;47080;-78
2023/01/24 12:15:16;;;;;;;;;42.50;35.25;;;;;5.69;65.34;103124.97;6274739;22;45655;-79
2023/01/24 12:17:54;;;;;;;;;46.50;39.25;;;;;5.70;65.64;103116.19;6275267;22;45585;-78
2023/01/24 12:20:21;;;;;;;;;41.75;36.00;;;;;5.69;66.08;103114.38;6275829;22;45339;-78
2023/01/24 12:22:48;;;;;;;;;45.75;39.75;;;;;5.62;65.75;103097.44;6275964;22;45337;-78
2023/01/24 12:25:23;;;;;;;;;34.75;32.00;;;;;5.57;65.32;103078.75;6274481;22;45701;-78
2023/01/24 12:27:53;;;;;;;;;42.25;32.25;;;;;5.57;65.12;103086.69;6274109;22;45337;-78
2023/01/24 12:30:37;;;;;;;;;45.25;36.00;;;;;5.69;65.70;103096.72;6275458;22;45503;-79
2023/01/24 12:33:33;;;;;;;;;42.00;38.50;;;;;5.73;65.38;103105.63;6274291;22;47166;-78
2023/01/24 12:36:11;;;;;;;;;32.25;27.00;;;;;5.67;65.56;103098.44;6273806;22;45798;-77
2023/01/24 12:38:41;;;;;;;;;40.00;35.25;;;;;5.67;65.38;103098.44;6273206;22;45229;-78
2023/01/24 12:41:31;;;;;;;;;38.75;35.50;;;;;5.70;65.88;103092.34;6274753;22;45373;-77
2023/01/24 12:44:03;;;;;;;;;50.00;38.75;;;;;5.71;65.42;103091.47;6273415;22;48025;-78
2023/01/24 12:46:58;;;;;;;;;49.00;38.75;;;;;5.72;65.66;103087.97;6276446;22;45428;-78
2023/01/24 12:49:55;;;;;;;;;42.25;33.75;;;;;5.74;65.25;103091.53;6277089;22;45453;-78
2023/01/24 12:52:42;;;;;;;;;40.50;36.00;;;;;5.66;65.54;103098.41;6274119;22;45348;-79
2023/01/24 12:55:16;;;;;;;;;49.00;40.00;;;;;5.67;66.16;103097.56;6276549;22;46006;-78
2023/01/24 12:58:06;;;;;;;;;43.00;36.00;;;;;5.63;65.30;103093.94;6276899;22;45306;-78
2023/01/24 13:00:55;;;;;;;;;49.50;39.75;;;;;5.69;66.28;103088.78;6275490;22;45225;-78
2023/01/24 13:03:38;;;;;;;;;41.50;38.25;;;;;5.72;65.31;103086.19;6230867;22;45409;-79
2023/01/24 13:06:19;;;;;;;;;61.75;46.25;;;;;5.71;65.36;103079.13;6269648;22;48089;-78
2023/01/24 13:08:54;;;;;;;;;34.25;31.50;;;;;5.71;65.56;103073.84;6304296;22;45387;-79
2023/01/24 13:11:23;;;;;;;;;44.50;35.00;;;;;5.70;65.95;103068.50;6301191;22;45760;-80
2023/01/24 13:14:01;;;;;;;;;45.50;38.75;;;;;5.81;66.13;103077.56;6304120;22;45607;-80
2023/01/24 13:16:40;;;;;;;;;41.25;35.25;;;;;5.81;65.45;103080.22;6303728;22;45670;-80
2023/01/24 13:19:22;;;;;;;;;52.25;39.25;;;;;5.81;66.12;103069.63;6276401;22;45854;-80
2023/01/24 13:21:58;;;;;;;;;48.50;37.75;;;;;5.78;65.63;103056.31;6304750;22;45331;-80
2023/01/24 13:24:48;;;;;;;;;49.75;39.00;;;;;5.80;65.24;103054.59;6303245;22;45663;-80
2023/01/24 13:27:36;;;;;;;;;52.00;42.25;;;;;5.96;65.40;103081.47;6304406;22;45364;-80
2023/01/24 13:30:20;;;;;;;;;55.75;41.75;;;;;5.92;64.98;103076.09;6303947;22;45258;-80
2023/01/24 13:32:47;;;;;;;;;48.25;41.00;;;;;5.78;65.59;103073.97;6303922;22;45404;-80
2023/01/24 13:35:18;;;;;;;;;52.75;41.50;;;;;5.85;65.67;103078.56;6302554;22;45695;-80
2023/01/24 13:38:03;;;;;;;;;43.75;37.50;;;;;5.75;65.35;103064.19;6302856;22;46372;-80
2023/01/24 13:40:34;;;;;;;;;55.00;43.00;;;;;5.72;65.25;103043.81;6275229;22;45516;-80
2023/01/24 13:43:01;;;;;;;;;49.75;41.50;;;;;5.92;65.78;103084.03;6276649;22;45408;-80
2023/01/24 13:45:28;;;;;;;;;49.00;42.00;;;;;5.99;66.07;103081.59;6304722;22;45318;-80
2023/01/24 13:47:55;;;;;;;;;47.50;39.25;;;;;5.97;65.49;103073.59;6275847;22;47064;-80
2023/01/24 13:50:23;;;;;;;;;55.00;41.50;;;;;5.92;65.66;103064.59;6276098;22;45500;-80
2023/01/24 13:52:56;;;;;;;;;43.00;38.50;;;;;5.93;65.75;103066.38;6303854;22;45624;-80
2023/01/24 13:55:24;;;;;;;;;41.50;36.25;;;;;6.05;65.56;103079.09;6276997;22;45607;-80
2023/01/24 13:58:09;;;;;;;;;48.00;39.00;;;;;6.06;65.54;103079.09;6274800;22;47370;-80
2023/01/24 14:00:57;;;;;;;;;40.25;34.50;;;;;6.05;65.56;103079.09;6303747;22;45518;-80
2023/01/24 14:03:38;;;;;;;;;40.25;36.75;;;;;5.88;65.53;103054.75;6274489;22;45491;-80
2023/01/24 14:06:03;;;;;;;;;51.00;40.50;;;;;5.99;65.36;103082.47;6300442;22;45561;-80
2023/01/24 14:08:28;;;;;;;;;38.25;26.25;;;;;5.95;65.13;103083.25;6303477;22;45888;-80
2023/01/24 14:11:06;;;;;;;;;44.67;37.33;;;;;6.00;65.49;103080.72;6276442;22;46141;-80
2023/01/24 14:13:55;;;;;;;;;41.75;36.50;;;;;5.89;66.06;103059.22;6304300;22;45547;-80
2023/01/24 14:16:24;;;;;;;;;53.25;39.75;;;;;6.05;66.15;103074.69;6302325;22;45392;-80
2023/01/24 14:19:12;;;;;;;;;45.75;36.50;;;;;6.11;65.79;103084.53;6303036;22;45345;-80
2023/01/24 14:22:01;;;;;;;;;45.00;36.75;;;;;6.14;65.55;103076.63;6274934;22;46188;-80
2023/01/24 14:24:53;;;;;;;;;49.50;40.50;;;;;5.95;65.79;103040.81;6276266;22;45651;-80
2023/01/24 14:27:38;;;;;;;;;40.50;33.00;;;;;6.15;65.74;103077.53;6302621;22;45360;-80
2023/01/24 14:30:13;;;;;;;;;41.75;37.75;;;;;6.21;65.09;103081.22;6276227;22;47366;-80
2023/01/24 14:32:50;;;;;;;;;38.25;34.75;;;;;6.16;65.52;103074.03;6306143;22;45671;-80
2023/01/24 14:35:16;;;;;;;;;38.75;35.00;;;;;6.24;65.76;103081.28;6278078;22;45290;-79
2023/01/24 14:37:41;;;;;;;;;35.00;31.00;;;;;6.07;65.41;103059.69;6279881;22;45510;-80
2023/01/24 14:40:16;;;;;;;;;16.25;12.75;;;;;6.23;65.34;103083.91;6307592;22;45821;-80
2023/01/24 14:42:41;;;;;;;;;42.00;39.00;;;;;6.09;65.35;103076.53;6304986;22;45616;-80
2023/01/24 14:45:14;;;;;;;;;49.00;39.00;;;;;6.05;64.94;103068.50;6307028;22;45210;-80
2023/01/24 14:47:40;;;;;;;;;39.25;36.00;;;;;6.05;64.97;103072.03;6306861;22;45285;-79
2023/01/24 14:50:28;;;;;;;;;31.25;27.25;;;;;5.86;65.46;103052.06;6306459;22;46203;-80
2023/01/24 14:52:55;;;;;;;;;47.75;41.50;;;;;6.09;65.47;103088.91;6277923;22;45425;-80
2023/01/24 14:55:26;;;;;;;;;47.50;40.75;;;;;6.08;65.62;103090.66;6307361;22;45475;-80
2023/01/24 14:57:52;;;;;;;;;36.50;31.50;;;;;5.93;65.67;103069.94;6307033;22;45457;-78
2023/01/24 15:00:18;;;;;;;;;38.50;32.75;;;;;6.00;64.96;103083.38;6278736;22;48740;-81
2023/01/24 15:03:01;;;;;;;;;32.25;29.25;;;;;6.00;66.13;103086.00;6305603;22;45317;-81
2023/01/24 15:05:30;;;;;;;;;42.25;38.50;;;;;6.07;65.59;103090.63;6305179;22;45285;-81
2023/01/24 15:07:58;;;;;;;;;46.75;38.75;;;;;5.96;65.33;103063.84;6279126;22;46250;-81
2023/01/24 15:10:36;;;;;;;;;50.75;39.00;;;;;5.87;65.31;103064.50;6279160;22;48218;-81
2023/01/24 15:13:07;;;;;;;;;48.00;39.00;;;;;5.82;65.00;103067.91;6305471;22;45726;-80
2023/01/24 15:15:33;;;;;;;;;38.25;30.75;;;;;5.86;65.68;103081.22;6306501;22;45575;-80
2023/01/24 15:18:09;;;;;;;;;42.75;36.75;;;;;5.87;65.19;103091.00;6303063;22;45579;-81
2023/01/24 15:20:35;;;;;;;;;46.50;33.75;;;;;5.82;65.25;103086.44;6278835;22;47535;-81
2023/01/24 15:23:09;;;;;;;;;46.00;39.00;;;;;5.84;66.10;103082.06;6279632;22;45450;-81
2023/01/24 15:25:34;;;;;;;;;40.50;39.00;;;;;5.96;65.86;103106.25;6307662;22;45221;-81
2023/01/24 15:28:29;;;;;;;;;38.25;33.25;;;;;5.86;65.74;103088.31;6307162;22;45500;-80
2023/01/24 15:30:59;;;;;;;;;40.25;32.50;;;;;6.00;65.48;103112.53;6305879;22;46014;-81
2023/01/24 15:33:39;;;;;;;;;39.00;31.75;;;;;5.84;65.70;103098.88;6270909;22;45696;-81
2023/01/24 15:36:22;;;;;;;;;35.00;33.00;;;;;5.83;66.47;103093.53;6305921;22;45220;-81
2023/01/24 15:38:52;;;;;;;;;29.75;21.75;;;;;5.85;65.55;103095.38;6306413;22;45426;-81
2023/01/24 15:43:45;;;;;;;;;34.50;30.75;;;;;5.86;65.79;103094.50;6303786;22;46986;-81
2023/01/24 15:44:15;;;;;;;;;46.50;36.25;;;;;5.99;65.70;103111.63;6306059;22;45677;-81
2023/01/24 15:49:36;;;;;;;;;36.00;33.00;;;;;5.94;65.88;103105.28;6306280;22;45266;-81
2023/01/24 15:52:07;;;;;;;;;42.00;33.00;;;;;5.90;65.80;103100.78;6305780;22;45357;-81
2023/01/24 15:54:41;;;;;;;;;43.50;38.75;;;;;5.89;65.23;103110.47;6306896;22;45477;-81
2023/01/24 15:57:33;;;;;;;;;42.25;32.50;;;;;5.88;66.25;103113.09;6278682;22;45611;-81
2023/01/24 16:00:07;;;;;;;;;30.50;27.50;;;;;5.84;65.70;103114.75;6279122;22;45602;-80
2023/01/24 16:02:33;;;;;;;;;30.75;24.75;;;;;5.85;66.05;103113.94;6277859;22;47472;-80
2023/01/24 16:04:58;;;;;;;;;40.75;36.75;;;;;5.67;65.88;103076.34;6278243;22;45388;-80
2023/01/24 16:07:23;;;;;;;;;40.25;35.00;;;;;5.71;65.96;103092.38;6276688;22;45221;-81
2023/01/24 16:09:49;;;;;;;;;28.75;26.50;;;;;5.74;65.76;103118.94;6279498;22;45449;-80
2023/01/24 16:12:18;;;;;;;;;43.50;34.75;;;;;5.62;66.28;103099.19;6278818;22;47838;-81
2023/01/24 16:14:52;;;;;;;;;42.25;32.75;;;;;5.60;66.28;103101.81;6306748;22;45234;-80
2023/01/24 16:17:25;;;;;;;;;40.00;29.75;;;;;5.63;66.23;103123.09;6306912;22;45384;-80
2023/01/24 16:19:51;;;;;;;;;41.25;30.75;;;;;5.62;66.44;103115.09;6279130;22;45303;-81
2023/01/24 16:22:16;;;;;;;;;22.00;18.75;;;;;5.67;66.20;103119.63;6307629;22;46490;-81
2023/01/24 16:24:42;;;;;;;;;41.50;35.25;;;;;5.64;65.86;103116.91;6279879;22;45272;-81
2023/01/24 16:27:11;;;;;;;;;49.00;39.75;;;;;5.56;66.31;103106.13;6280298;22;45278;-81
2023/01/24 16:29:40;;;;;;;;;48.50;39.00;;;;;5.54;66.49;103104.28;6307643;22;45399;-81
2023/01/24 16:32:34;;;;;;;;;35.75;32.75;;;;;5.67;66.60;103132.00;6279393;22;48096;-81
2023/01/24 16:35:02;;;;;;;;;39.75;31.75;;;;;5.49;66.19;103113.84;6279197;22;45678;-81
2023/01/24 16:37:27;;;;;;;;;31.50;29.25;;;;;5.61;66.81;103138.03;6306933;22;45290;-85
2023/01/24 16:39:54;;;;;;;;;32.50;29.75;;;;;5.43;66.48;103106.66;6280256;22;45357;-85
2023/01/24 16:42:19;;;;;;;;;43.00;39.00;;;;;5.37;66.70;103101.19;6307111;22;45277;-84
2023/01/24 16:45:00;;;;;;;;;34.75;27.25;;;;;5.54;66.68;103131.66;6280647;22;45498;-85
2023/01/24 16:47:31;;;;;;;;;38.50;35.50;;;;;5.26;66.27;103087.66;6309054;22;45401;-85
2023/01/24 16:50:03;;;;;;;;;48.75;41.50;;;;;5.26;66.81;103085.03;6310111;22;45618;-85
2023/01/24 16:52:34;;;;;;;;;38.25;32.25;;;;;5.20;66.00;103055.72;6280474;22;46183;-84
2023/01/24 16:55:50;;;;;;;;;43.00;35.75;;;;;5.34;66.14;103079.91;6306879;22;45381;-84
2023/01/24 16:58:15;;;;;;;;;37.50;30.25;;;;;5.57;66.42;103115.84;6308041;22;45414;-84
2023/01/24 17:00:40;;;;;;;;;42.25;35.50;;;;;5.48;66.40;103098.81;6308560;22;45432;-84
2023/01/24 17:03:13;;;;;;;;;34.25;32.25;;;;;5.34;65.99;103077.25;6308329;22;45217;-84
2023/01/24 17:05:40;;;;;;;;;42.25;35.00;;;;;5.36;66.50;103083.50;6279683;22;45623;-85
2023/01/24 17:08:11;;;;;;;;;24.25;16.25;;;;;5.43;66.38;103104.00;6279321;22;45238;-85
2023/01/24 17:10:36;;;;;;;;;31.75;28.25;;;;;5.41;66.49;103107.47;6279824;22;45332;-85
2023/01/24 17:13:03;;;;;;;;;38.25;34.00;;;;;5.42;66.38;103099.56;6308103;22;46050;-85
2023/01/24 17:15:33;;;;;;;;;28.00;26.75;;;;;5.34;66.15;103082.56;6278903;22;45397;-85
2023/01/24 17:17:58;;;;;;;;;34.75;30.75;;;;;5.58;66.35;103127.38;6306466;22;45317;-85
2023/01/24 17:20:29;;;;;;;;;32.75;29.75;;;;;5.33;66.44;103075.44;6306488;22;45530;-85
2023/01/24 17:22:54;;;;;;;;;43.75;35.75;;;;;5.34;66.28;103078.16;6309091;22;45250;-85
2023/01/24 17:25:30;;;;;;;;;35.50;28.50;;;;;5.43;66.30;103082.81;6279841;22;45440;-85
2023/01/24 17:27:59;;;;;;;;;38.50;33.00;;;;;5.52;66.78;103106.88;6279986;22;45329;-85
2023/01/24 17:30:25;;;;;;;;;36.75;32.00;;;;;5.35;67.05;103084.38;6279561;22;45772;-85
2023/01/24 17:32:51;;;;;;;;;41.00;34.25;;;;;5.59;66.18;103118.53;6307176;22;45377;-85
2023/01/24 17:35:18;;;;;;;;;39.50;31.25;;;;;5.39;66.15;103083.56;6280195;22;45534;-85
2023/01/24 17:37:44;;;;;;;;;31.25;30.50;;;;;5.66;66.60;103119.59;6306050;22;45178;-85
2023/01/24 17:40:20;;;;;;;;;35.50;31.00;;;;;5.38;66.54;103081.81;6279364;22;45397;-84
2023/01/24 17:42:45;;;;;;;;;33.50;30.00;;;;;5.44;66.26;103086.34;6278735;22;46945;-85
2023/01/24 17:45:12;;;;;;;;;35.50;32.75;;;;;5.53;66.61;103099.81;6306091;22;45175;-85
2023/01/24 17:47:41;;;;;;;;;36.00;34.00;;;;;5.46;66.70;103082.88;6279562;22;45497;-85
2023/01/24 17:50:27;;;;;;;;;30.25;27.75;;;;;5.70;66.52;103117.06;6305035;22;45791;-85
2023/01/24 17:53:04;;;;;;;;;36.25;28.50;;;;;5.41;66.30;103070.38;6279082;22;46546;-85
2023/01/24 17:55:38;;;;;;;;;34.00;30.75;;;;;5.43;66.16;103066.94;6306753;22;46076;-85
2023/01/24 17:58:07;;;;;;;;;35.50;33.75;;;;;5.84;66.96;103149.22;6282828;22;45564;-85
2023/01/24 18:00:40;;;;;;;;;35.00;27.75;;;;;5.70;66.10;103129.44;6308549;22;45512;-84
2023/01/24 18:03:11;;;;;;;;;34.50;28.00;;;;;5.70;65.99;103119.72;6280314;22;46815;-85
2023/01/24 18:05:40;;;;;;;;;33.25;31.50;;;;;5.62;66.26;103105.38;6279787;22;45513;-85
2023/01/24 18:08:08;;;;;;;;;38.25;31.50;;;;;5.44;66.31;103076.63;6276988;22;45245;-85
2023/01/24 18:10:38;;;;;;;;;36.25;34.00;;;;;5.62;66.10;103112.44;6279241;22;45518;-84
2023/01/24 18:13:07;;;;;;;;;35.00;31.25;;;;;5.53;65.96;103100.75;6307665;22;45667;-84
2023/01/24 18:15:43;;;;;;;;;34.50;29.75;;;;;5.47;66.09;103082.03;6279591;22;45305;-84
2023/01/24 18:18:09;;;;;;;;;25.75;19.50;;;;;5.74;66.69;103128.66;6277978;22;45509;-85
2023/01/24 18:20:38;;;;;;;;;33.00;27.00;;;;;5.98;66.64;103176.16;6279840;22;45600;-85
2023/01/24 18:23:03;;;;;;;;;32.75;29.50;;;;;5.81;66.29;103133.25;6278501;22;48477;-85
2023/01/24 18:25:30;;;;;;;;;29.50;27.75;;;;;5.74;65.66;103137.47;6307326;22;45551;-84
2023/01/24 18:27:56;;;;;;;;;40.75;33.25;;;;;5.93;65.61;103169.78;6279788;22;45401;-85
2023/01/24 18:30:22;;;;;;;;;35.50;32.50;;;;;5.48;66.44;103090.84;6278772;22;45452;-83
2023/01/24 18:32:47;;;;;;;;;22.25;18.00;;;;;5.53;65.90;103102.47;6278324;22;46936;-83
2023/01/24 18:35:13;;;;;;;;;43.25;35.00;;;;;5.84;66.45;103151.00;6307392;22;45217;-83
2023/01/24 18:37:38;;;;;;;;;39.75;32.00;;;;;5.81;66.19;103151.78;6305073;22;45638;-83
2023/01/24 18:40:05;;;;;;;;;40.00;29.00;;;;;5.82;66.33;103143.00;6279570;22;45467;-84
2023/01/24 18:42:31;;;;;;;;;37.75;34.50;;;;;5.86;66.01;103150.16;6304211;22;48018;-83
2023/01/24 18:44:57;;;;;;;;;28.00;26.75;;;;;5.88;66.25;103151.13;6306623;22;45773;-83
2023/01/24 18:47:23;;;;;;;;;27.50;26.50;;;;;5.77;66.36;103125.19;6305443;22;45585;-84
2023/01/24 18:49:48;;;;;;;;;45.50;38.00;;;;;6.08;66.55;103170.22;6306933;22;45349;-82
2023/01/24 18:52:13;;;;;;;;;39.25;35.25;;;;;6.04;66.76;103138.28;6278397;22;47889;-84
2023/01/24 18:54:40;;;;;;;;;36.50;29.75;;;;;6.02;66.57;103140.88;6307171;22;45391;-83
2023/01/24 18:57:08;;;;;;;;;36.50;31.75;;;;;6.19;65.79;103157.22;6279926;22;45437;-83
2023/01/24 18:59:34;;;;;;;;;35.25;31.75;;;;;6.09;65.93;103157.84;6278616;22;45344;-83
2023/01/24 19:01:59;;;;;;;;;37.25;34.75;;;;;5.96;66.48;103137.16;6277150;22;47215;-82
2023/01/24 19:04:26;;;;;;;;;33.00;31.25;;;;;6.16;66.64;103162.44;6306916;22;45693;-83
2023/01/24 19:06:51;;;;;;;;;32.75;31.00;;;;;5.97;66.07;103131.03;6304647;22;45466;-83
2023/01/24 19:09:17;;;;;;;;;38.25;30.75;;;;;6.18;66.79;103157.16;6303792;22;45358;-83
2023/01/24 19:11:44;;;;;;;;;38.00;29.75;;;;;6.18;65.87;103151.88;6303113;22;45649;-84
2023/01/24 19:14:10;;;;;;;;;38.50;33.25;;;;;6.14;66.21;103140.28;6304275;22;45333;-85
2023/01/24 19:16:39;;;;;;;;;42.00;36.50;;;;;6.27;66.36;103152.09;6304243;22;45401;-84
2023/01/24 19:19:06;;;;;;;;;35.00;31.00;;;;;6.22;65.76;103133.41;6303031;22;45549;-83
2023/01/24 19:21:32;;;;;;;;;47.75;37.25;;;;;6.33;65.43;103146.03;6275401;22;47339;-83
2023/01/24 19:23:58;;;;;;;;;41.75;32.00;;;;;6.21;65.76;103128.97;6302549;22;45361;-84
2023/01/24 19:26:24;;;;;;;;;40.25;32.25;;;;;6.24;65.42;103121.09;6304744;22;45359;-82
2023/01/24 19:28:57;;;;;;;;;39.25;36.00;;;;;6.41;65.89;103149.78;6275378;22;45484;-83
2023/01/24 19:31:23;;;;;;;;;37.50;34.25;;;;;6.43;65.74;103151.63;6275546;22;48212;-82
2023/01/24 19:33:50;;;;;;;;;52.50;39.75;;;;;6.41;65.88;103147.13;6304163;22;45737;-83
2023/01/24 19:36:17;;;;;;;;;38.00;31.00;;;;;6.52;65.11;103156.22;6304402;22;45467;-83
2023/01/24 19:38:47;;;;;;;;;33.50;28.50;;;;;6.40;65.33;103132.03;6303958;22;45325;-83
2023/01/24 19:41:13;;;;;;;;;45.25;38.75;;;;;6.43;65.16;103145.38;6304351;22;45679;-83
2023/01/24 19:43:38;;;;;;;;;46.00;33.75;;;;;6.41;65.38;103142.69;6303921;22;45556;-83
2023/01/24 19:46:04;;;;;;;;;35.25;35.25;;;;;6.39;65.65;103125.84;6277641;22;45790;-83
2023/01/24 19:48:29;;;;;;;;;39.50;34.00;;;;;6.44;65.84;103140.13;6276197;22;45498;-82
2023/01/24 19:51:02;;;;;;;;;45.00;33.50;;;;;6.46;66.01;103127.78;6304143;22;45494;-82
2023/01/24 19:53:28;;;;;;;;;34.50;32.25;;;;;6.51;65.36;103125.22;6304031;22;45703;-82
2023/01/24 19:56:05;;;;;;;;;42.00;33.25;;;;;6.64;65.07;103159.16;6302865;22;45395;-83
2023/01/24 19:58:31;;;;;;;;;35.75;33.00;;;;;6.55;65.78;103126.19;6276273;22;45320;-82
2023/01/24 20:01:14;;;;;;;;;39.00;31.75;;;;;6.56;65.16;103128.00;6303514;22;45860;-81
2023/01/24 20:03:41;;;;;;;;;39.50;28.25;;;;;6.53;65.32;103125.28;6276859;22;45747;-82
2023/01/24 20:06:07;;;;;;;;;52.00;38.25;;;;;6.73;64.85;103149.59;6304674;22;45584;-82
2023/01/24 20:08:33;;;;;;;;;41.50;36.75;;;;;6.71;65.19;103149.56;6276328;22;45596;-83
2023/01/24 20:10:59;;;;;;;;;36.25;33.00;;;;;6.76;64.78;103142.59;6276352;22;46908;-83
2023/01/24 20:13:24;;;;;;;;;38.75;29.75;;;;;6.71;64.54;103138.06;6303234;22;45627;-84
2023/01/24 20:15:50;;;;;;;;;36.50;31.75;;;;;6.70;64.65;103144.22;6304521;22;45607;-83
2023/01/24 20:18:15;;;;;;;;;43.50;37.25;;;;;6.67;64.77;103145.94;6276271;22;45303;-83
2023/01/24 20:20:47;;;;;;;;;32.75;31.25;;;;;6.61;65.34;103127.22;6303922;22;45507;-82
2023/01/24 20:23:14;;;;;;;;;40.75;32.50;;;;;6.67;65.08;103142.41;6303383;22;45374;-82
2023/01/24 20:25:40;;;;;;;;;28.75;25.75;;;;;6.58;64.38;103137.81;6304581;22;45385;-82
2023/01/24 20:28:05;;;;;;;;;41.50;35.75;;;;;6.52;64.82;103142.97;6276832;22;45414;-82
2023/01/24 20:30:31;;;;;;;;;35.75;26.75;;;;;6.64;65.01;103159.16;6302723;22;45777;-82
2023/01/24 20:32:56;;;;;;;;;35.25;29.00;;;;;6.71;65.37;103169.91;6276126;22;45425;-82
2023/01/24 20:35:21;;;;;;;;;38.50;35.00;;;;;6.57;64.55;103149.28;6304190;22;45396;-83
2023/01/24 20:37:47;;;;;;;;;41.00;37.25;;;;;6.65;65.04;103173.34;6303550;22;45435;-83
2023/01/24 20:40:12;;;;;;;;;47.75;37.50;;;;;6.54;65.09;103149.19;6276436;22;47044;-83
2023/01/24 20:42:40;;;;;;;;;32.25;30.50;;;;;6.52;64.44;103152.69;6303375;22;45373;-83
2023/01/24 20:45:07;;;;;;;;;37.50;36.00;;;;;6.51;64.49;103162.38;6276406;22;45683;-84
2023/01/24 20:47:35;;;;;;;;;42.00;35.25;;;;;6.57;65.28;103173.16;6301765;22;45422;-84
2023/01/24 20:50:01;;;;;;;;;42.50;35.25;;;;;6.44;64.87;103155.16;6304052;22;45890;-83
2023/01/24 20:52:26;;;;;;;;;32.00;28.00;;;;;6.58;65.35;103182.91;6303969;22;45651;-87
2023/01/24 20:54:51;;;;;;;;;41.25;36.50;;;;;6.57;64.66;103177.56;6276746;22;45289;-83
2023/01/24 20:57:17;;;;;;;;;37.00;32.25;;;;;6.52;65.06;103163.31;6276721;22;45541;-83
2023/01/24 20:59:42;;;;;;;;;41.00;33.75;;;;;6.41;64.44;103145.34;6275301;22;46974;-83
2023/01/24 21:02:08;;;;;;;;;42.50;37.00;;;;;6.59;64.95;103173.19;6274955;22;45462;-83
2023/01/24 21:04:34;;;;;;;;;34.00;33.25;;;;;6.46;65.10;103169.34;6277374;22;45510;-83
2023/01/24 21:06:59;;;;;;;;;48.75;39.25;;;;;6.49;65.04;103182.69;6304842;22;45515;-82
2023/01/24 21:09:25;;;;;;;;;33.50;32.75;;;;;6.46;64.85;103166.69;6277669;22;47276;-83
2023/01/24 21:11:50;;;;;;;;;39.00;34.50;;;;;6.44;64.85;103163.13;6305030;22;45304;-83
2023/01/24 21:14:19;;;;;;;;;43.00;38.00;;;;;6.45;65.17;103163.16;6304729;22;45705;-82
2023/01/24 21:16:44;;;;;;;;;37.00;35.75;;;;;6.28;64.89;103140.63;6277236;22;46044;-83
2023/01/24 21:19:13;;;;;;;;;34.75;32.75;;;;;6.36;65.18;103148.75;6304873;22;45795;-83
2023/01/24 21:21:40;;;;;;;;;36.50;32.50;;;;;6.18;64.87;103113.00;6277214;22;45354;-82